KPTW/PTW METAR and TAF weather

Enter ICAO airport designator
Station Type Date Time Source
KPTW METAR 2020/07/08 23:19 UTC NOAA

KPTW 082319Z AUTO 01003KT 5SM BR BKN005 OVC040 24/23 A2998 RMK AO2 RAE17 P0000 T02390228


Station Type Date Time Source
KPTW Decoded METAR 2020/07/08 23:19 UTC NOAA

POTTSTOWN LIMERICK AIRPORT, PA, United States (KPTW) 40-14N 075-33W 89M
Jul 08, 2020 - 07:19 PM EDT / 2020.07.08 2319 UTC
Wind: from the N (010 degrees) at 3 MPH (3 KT):0
Visibility: 5 mile(s):0
Sky conditions: overcast
Weather: mist
Precipitation last hour: A trace
Temperature: 75.0 F (23.9 C)
Dew Point: 73.0 F (22.8 C)
Relative Humidity: 93%
Pressure (altimeter): 29.98 in. Hg (1015 hPa)
ob: KPTW 082319Z AUTO 01003KT 5SM BR BKN005 OVC040 24/23 A2998 RMK AO2 RAE17 P0000 T02390228
cycle: 23

Station Type Date Time Source
KPTW TAF UTC NOAA

Error!

Example: see airport list